sensor_id;sensor_type;location;lat;lon;timestamp;P1;durP1;ratioP1;P2;durP2;ratioP2
35276;SDS011;21401;50.878;8.050;2022-07-03T00:01:33;3.15;;;2.13;;
35276;SDS011;21401;50.878;8.050;2022-07-03T00:04:02;4.05;;;2.53;;
35276;SDS011;21401;50.878;8.050;2022-07-03T00:06:28;6.35;;;2.42;;
35276;SDS011;21401;50.878;8.050;2022-07-03T00:08:55;2.50;;;2.00;;
35276;SDS011;21401;50.878;8.050;2022-07-03T00:11:22;3.38;;;1.95;;
35276;SDS011;21401;50.878;8.050;2022-07-03T00:13:48;4.47;;;1.88;;
35276;SDS011;21401;50.878;8.050;2022-07-03T00:16:14;3.65;;;2.13;;
35276;SDS011;21401;50.878;8.050;2022-07-03T00:18:40;3.90;;;2.13;;
35276;SDS011;21401;50.878;8.050;2022-07-03T00:21:07;5.43;;;2.83;;
35276;SDS011;21401;50.878;8.050;2022-07-03T00:23:42;3.97;;;2.30;;
35276;SDS011;21401;50.878;8.050;2022-07-03T00:26:11;4.75;;;1.98;;
35276;SDS011;21401;50.878;8.050;2022-07-03T00:28:38;4.63;;;1.92;;
35276;SDS011;21401;50.878;8.050;2022-07-03T00:31:08;3.00;;;1.98;;
35276;SDS011;21401;50.878;8.050;2022-07-03T00:33:36;5.22;;;2.08;;
35276;SDS011;21401;50.878;8.050;2022-07-03T00:36:08;3.83;;;2.22;;
35276;SDS011;21401;50.878;8.050;2022-07-03T00:38:36;3.45;;;2.35;;
35276;SDS011;21401;50.878;8.050;2022-07-03T00:41:02;3.55;;;2.40;;
35276;SDS011;21401;50.878;8.050;2022-07-03T00:43:29;2.72;;;1.98;;
35276;SDS011;21401;50.878;8.050;2022-07-03T00:45:55;3.13;;;2.08;;
35276;SDS011;21401;50.878;8.050;2022-07-03T00:48:32;3.90;;;2.33;;
35276;SDS011;21401;50.878;8.050;2022-07-03T00:51:02;5.53;;;2.17;;
35276;SDS011;21401;50.878;8.050;2022-07-03T00:53:31;6.93;;;2.22;;
35276;SDS011;21401;50.878;8.050;2022-07-03T00:56:00;6.15;;;1.85;;
35276;SDS011;21401;50.878;8.050;2022-07-03T00:58:29;7.40;;;2.35;;
35276;SDS011;21401;50.878;8.050;2022-07-03T01:00:58;2.95;;;2.50;;
35276;SDS011;21401;50.878;8.050;2022-07-03T01:03:25;4.15;;;2.30;;
35276;SDS011;21401;50.878;8.050;2022-07-03T01:05:52;4.05;;;2.25;;
35276;SDS011;21401;50.878;8.050;2022-07-03T01:16:41;4.63;;;2.47;;
35276;SDS011;21401;50.878;8.050;2022-07-03T01:27:56;4.43;;;1.70;;
35276;SDS011;21401;50.878;8.050;2022-07-03T01:30:29;5.38;;;1.75;;
35276;SDS011;21401;50.878;8.050;2022-07-03T01:33:13;2.28;;;1.88;;
35276;SDS011;21401;50.878;8.050;2022-07-03T01:35:47;3.70;;;1.80;;
35276;SDS011;21401;50.878;8.050;2022-07-03T01:38:18;2.72;;;2.00;;
35276;SDS011;21401;50.878;8.050;2022-07-03T01:40:46;2.33;;;1.70;;
35276;SDS011;21401;50.878;8.050;2022-07-03T01:43:15;6.43;;;2.17;;
35276;SDS011;21401;50.878;8.050;2022-07-03T01:45:47;2.83;;;1.70;;
35276;SDS011;21401;50.878;8.050;2022-07-03T01:48:13;2.58;;;1.77;;
35276;SDS011;21401;50.878;8.050;2022-07-03T01:50:40;3.15;;;1.92;;
35276;SDS011;21401;50.878;8.050;2022-07-03T01:53:08;2.15;;;1.90;;
35276;SDS011;21401;50.878;8.050;2022-07-03T01:55:37;5.75;;;2.00;;
35276;SDS011;21401;50.878;8.050;2022-07-03T01:58:04;2.65;;;1.50;;
35276;SDS011;21401;50.878;8.050;2022-07-03T02:00:30;3.13;;;2.45;;
35276;SDS011;21401;50.878;8.050;2022-07-03T02:03:02;3.15;;;1.77;;
35276;SDS011;21401;50.878;8.050;2022-07-03T02:10:57;2.67;;;1.75;;
35276;SDS011;21401;50.878;8.050;2022-07-03T02:13:50;3.20;;;1.60;;
35276;SDS011;21401;50.878;8.050;2022-07-03T02:16:26;3.35;;;1.80;;
35276;SDS011;21401;50.878;8.050;2022-07-03T02:18:57;3.55;;;1.92;;
35276;SDS011;21401;50.878;8.050;2022-07-03T02:21:29;3.55;;;1.70;;
35276;SDS011;21401;50.878;8.050;2022-07-03T02:26:39;4.30;;;1.92;;
35276;SDS011;21401;50.878;8.050;2022-07-03T02:29:17;3.55;;;2.17;;
35276;SDS011;21401;50.878;8.050;2022-07-03T02:31:51;2.00;;;1.80;;
35276;SDS011;21401;50.878;8.050;2022-07-03T02:34:22;4.65;;;1.80;;
35276;SDS011;21401;50.878;8.050;2022-07-03T02:36:50;3.72;;;2.08;;
35276;SDS011;21401;50.878;8.050;2022-07-03T02:40:07;4.25;;;1.98;;
35276;SDS011;21401;50.878;8.050;2022-07-03T02:44:53;2.88;;;1.90;;
35276;SDS011;21401;50.878;8.050;2022-07-03T02:47:27;3.15;;;2.00;;
35276;SDS011;21401;50.878;8.050;2022-07-03T02:50:22;2.83;;;2.22;;
35276;SDS011;21401;50.878;8.050;2022-07-03T02:52:54;2.55;;;2.00;;
35276;SDS011;21401;50.878;8.050;2022-07-03T02:55:44;3.00;;;2.10;;
35276;SDS011;21401;50.878;8.050;2022-07-03T03:00:59;2.30;;;1.88;;
35276;SDS011;21401;50.878;8.050;2022-07-03T03:03:38;4.10;;;1.63;;
35276;SDS011;21401;50.878;8.050;2022-07-03T03:06:15;3.13;;;2.00;;
35276;SDS011;21401;50.878;8.050;2022-07-03T03:08:50;3.13;;;1.95;;
35276;SDS011;21401;50.878;8.050;2022-07-03T03:11:23;2.65;;;1.80;;
35276;SDS011;21401;50.878;8.050;2022-07-03T03:13:54;5.20;;;2.22;;
35276;SDS011;21401;50.878;8.050;2022-07-03T03:16:22;2.58;;;1.83;;
35276;SDS011;21401;50.878;8.050;2022-07-03T03:18:50;3.83;;;1.95;;
35276;SDS011;21401;50.878;8.050;2022-07-03T03:21:16;2.47;;;2.28;;
35276;SDS011;21401;50.878;8.050;2022-07-03T03:23:50;2.38;;;2.05;;
35276;SDS011;21401;50.878;8.050;2022-07-03T03:26:22;3.28;;;1.92;;
35276;SDS011;21401;50.878;8.050;2022-07-03T03:28:51;3.50;;;2.35;;
35276;SDS011;21401;50.878;8.050;2022-07-03T03:31:18;4.28;;;1.95;;
35276;SDS011;21401;50.878;8.050;2022-07-03T03:33:48;3.65;;;1.90;;
35276;SDS011;21401;50.878;8.050;2022-07-03T03:36:15;3.88;;;1.73;;
35276;SDS011;21401;50.878;8.050;2022-07-03T03:38:42;2.22;;;1.80;;
35276;SDS011;21401;50.878;8.050;2022-07-03T03:41:08;2.72;;;1.83;;
35276;SDS011;21401;50.878;8.050;2022-07-03T03:43:35;4.55;;;2.10;;
35276;SDS011;21401;50.878;8.050;2022-07-03T03:46:03;3.88;;;2.08;;
35276;SDS011;21401;50.878;8.050;2022-07-03T03:48:31;4.20;;;2.30;;
35276;SDS011;21401;50.878;8.050;2022-07-03T03:50:58;7.63;;;2.10;;
35276;SDS011;21401;50.878;8.050;2022-07-03T03:53:25;5.68;;;2.10;;
35276;SDS011;21401;50.878;8.050;2022-07-03T03:58:24;3.00;;;1.85;;
35276;SDS011;21401;50.878;8.050;2022-07-03T04:00:50;4.32;;;1.90;;
35276;SDS011;21401;50.878;8.050;2022-07-03T04:03:18;3.50;;;2.00;;
35276;SDS011;21401;50.878;8.050;2022-07-03T04:05:44;4.35;;;2.25;;
35276;SDS011;21401;50.878;8.050;2022-07-03T04:08:12;3.05;;;2.10;;
35276;SDS011;21401;50.878;8.050;2022-07-03T04:10:38;5.05;;;2.25;;
35276;SDS011;21401;50.878;8.050;2022-07-03T04:13:03;3.83;;;2.38;;
35276;SDS011;21401;50.878;8.050;2022-07-03T04:15:29;3.50;;;2.15;;
35276;SDS011;21401;50.878;8.050;2022-07-03T04:17:57;4.00;;;2.10;;
35276;SDS011;21401;50.878;8.050;2022-07-03T04:20:26;3.35;;;1.80;;
35276;SDS011;21401;50.878;8.050;2022-07-03T04:22:52;5.93;;;2.40;;
35276;SDS011;21401;50.878;8.050;2022-07-03T04:25:17;2.22;;;1.80;;
35276;SDS011;21401;50.878;8.050;2022-07-03T04:27:43;3.10;;;1.85;;
35276;SDS011;21401;50.878;8.050;2022-07-03T04:30:09;4.63;;;1.88;;
35276;SDS011;21401;50.878;8.050;2022-07-03T04:32:38;5.45;;;2.38;;
35276;SDS011;21401;50.878;8.050;2022-07-03T04:35:04;2.47;;;2.00;;
35276;SDS011;21401;50.878;8.050;2022-07-03T04:37:30;2.47;;;1.95;;
35276;SDS011;21401;50.878;8.050;2022-07-03T04:39:56;3.17;;;2.00;;
35276;SDS011;21401;50.878;8.050;2022-07-03T04:42:24;2.58;;;1.88;;
35276;SDS011;21401;50.878;8.050;2022-07-03T04:44:50;5.57;;;2.20;;
35276;SDS011;21401;50.878;8.050;2022-07-03T04:47:15;4.30;;;1.88;;
35276;SDS011;21401;50.878;8.050;2022-07-03T04:49:41;2.65;;;2.08;;
35276;SDS011;21401;50.878;8.050;2022-07-03T04:52:09;3.97;;;1.80;;
35276;SDS011;21401;50.878;8.050;2022-07-03T04:54:35;2.30;;;2.00;;
35276;SDS011;21401;50.878;8.050;2022-07-03T04:57:01;3.10;;;1.98;;
35276;SDS011;21401;50.878;8.050;2022-07-03T04:59:27;1.95;;;1.75;;
35276;SDS011;21401;50.878;8.050;2022-07-03T05:01:52;3.17;;;1.80;;
35276;SDS011;21401;50.878;8.050;2022-07-03T05:04:20;2.90;;;2.40;;
35276;SDS011;21401;50.878;8.050;2022-07-03T05:06:48;4.00;;;2.00;;
35276;SDS011;21401;50.878;8.050;2022-07-03T05:09:14;4.82;;;1.58;;
35276;SDS011;21401;50.878;8.050;2022-07-03T05:11:39;5.95;;;2.25;;
35276;SDS011;21401;50.878;8.050;2022-07-03T05:14:06;5.05;;;2.05;;
35276;SDS011;21401;50.878;8.050;2022-07-03T05:16:32;2.70;;;1.85;;
35276;SDS011;21401;50.878;8.050;2022-07-03T05:18:57;2.72;;;1.90;;
35276;SDS011;21401;50.878;8.050;2022-07-03T05:21:24;3.78;;;2.00;;
35276;SDS011;21401;50.878;8.050;2022-07-03T05:23:50;2.42;;;2.03;;
35276;SDS011;21401;50.878;8.050;2022-07-03T05:26:16;6.28;;;2.05;;
35276;SDS011;21401;50.878;8.050;2022-07-03T05:28:43;3.22;;;1.80;;
35276;SDS011;21401;50.878;8.050;2022-07-03T05:31:09;2.97;;;2.08;;
35276;SDS011;21401;50.878;8.050;2022-07-03T05:33:35;3.00;;;1.80;;
35276;SDS011;21401;50.878;8.050;2022-07-03T05:36:01;1.92;;;1.65;;
35276;SDS011;21401;50.878;8.050;2022-07-03T05:38:26;3.40;;;1.80;;
35276;SDS011;21401;50.878;8.050;2022-07-03T05:41:13;3.50;;;1.65;;
35276;SDS011;21401;50.878;8.050;2022-07-03T05:43:39;4.53;;;1.90;;
35276;SDS011;21401;50.878;8.050;2022-07-03T05:46:04;3.65;;;2.05;;
35276;SDS011;21401;50.878;8.050;2022-07-03T05:48:30;3.22;;;1.92;;
35276;SDS011;21401;50.878;8.050;2022-07-03T05:50:58;2.78;;;2.00;;
35276;SDS011;21401;50.878;8.050;2022-07-03T05:53:24;2.47;;;1.95;;
35276;SDS011;21401;50.878;8.050;2022-07-03T05:55:49;3.58;;;1.85;;
35276;SDS011;21401;50.878;8.050;2022-07-03T05:58:15;1.92;;;1.70;;
35276;SDS011;21401;50.878;8.050;2022-07-03T06:00:41;2.38;;;1.70;;
35276;SDS011;21401;50.878;8.050;2022-07-03T06:03:07;2.38;;;1.90;;
35276;SDS011;21401;50.878;8.050;2022-07-03T06:05:33;2.78;;;2.00;;
35276;SDS011;21401;50.878;8.050;2022-07-03T06:07:59;3.70;;;1.83;;
35276;SDS011;21401;50.878;8.050;2022-07-03T06:10:28;6.00;;;1.92;;
35276;SDS011;21401;50.878;8.050;2022-07-03T06:12:59;2.15;;;1.38;;
35276;SDS011;21401;50.878;8.050;2022-07-03T06:15:24;1.60;;;1.50;;
35276;SDS011;21401;50.878;8.050;2022-07-03T06:17:50;3.58;;;1.73;;
35276;SDS011;21401;50.878;8.050;2022-07-03T06:20:16;1.65;;;1.55;;
35276;SDS011;21401;50.878;8.050;2022-07-03T06:22:45;1.90;;;1.40;;
35276;SDS011;21401;50.878;8.050;2022-07-03T06:25:10;2.97;;;1.50;;
35276;SDS011;21401;50.878;8.050;2022-07-03T06:27:37;5.60;;;1.60;;
35276;SDS011;21401;50.878;8.050;2022-07-03T06:30:05;4.38;;;1.17;;
35276;SDS011;21401;50.878;8.050;2022-07-03T06:32:31;1.58;;;1.17;;
35276;SDS011;21401;50.878;8.050;2022-07-03T06:34:57;4.55;;;1.10;;
35276;SDS011;21401;50.878;8.050;2022-07-03T06:37:25;2.75;;;1.05;;
35276;SDS011;21401;50.878;8.050;2022-07-03T06:39:50;2.50;;;1.50;;
35276;SDS011;21401;50.878;8.050;2022-07-03T06:42:16;4.03;;;1.17;;
35276;SDS011;21401;50.878;8.050;2022-07-03T06:44:41;2.75;;;1.10;;
35276;SDS011;21401;50.878;8.050;2022-07-03T06:47:09;1.85;;;1.25;;
35276;SDS011;21401;50.878;8.050;2022-07-03T06:49:35;2.60;;;1.40;;
35276;SDS011;21401;50.878;8.050;2022-07-03T06:52:00;2.90;;;1.27;;
35276;SDS011;21401;50.878;8.050;2022-07-03T06:54:26;1.98;;;1.40;;
35276;SDS011;21401;50.878;8.050;2022-07-03T06:56:52;1.67;;;1.40;;
35276;SDS011;21401;50.878;8.050;2022-07-03T06:59:17;7.60;;;2.55;;
35276;SDS011;21401;50.878;8.050;2022-07-03T07:01:43;4.35;;;1.27;;
35276;SDS011;21401;50.878;8.050;2022-07-03T07:04:11;6.15;;;1.60;;
35276;SDS011;21401;50.878;8.050;2022-07-03T07:06:36;3.08;;;1.63;;
35276;SDS011;21401;50.878;8.050;2022-07-03T07:09:04;4.82;;;1.60;;
35276;SDS011;21401;50.878;8.050;2022-07-03T07:11:30;6.05;;;1.40;;
35276;SDS011;21401;50.878;8.050;2022-07-03T07:13:56;2.15;;;1.40;;
35276;SDS011;21401;50.878;8.050;2022-07-03T07:16:21;2.00;;;1.70;;
35276;SDS011;21401;50.878;8.050;2022-07-03T07:18:47;3.72;;;1.38;;
35276;SDS011;21401;50.878;8.050;2022-07-03T07:21:15;3.47;;;1.23;;
35276;SDS011;21401;50.878;8.050;2022-07-03T07:23:40;3.58;;;2.08;;
35276;SDS011;21401;50.878;8.050;2022-07-03T07:26:08;4.38;;;2.15;;
35276;SDS011;21401;50.878;8.050;2022-07-03T07:28:34;4.07;;;1.50;;
35276;SDS011;21401;50.878;8.050;2022-07-03T07:31:00;3.83;;;1.85;;
35276;SDS011;21401;50.878;8.050;2022-07-03T07:33:26;5.55;;;1.60;;
35276;SDS011;21401;50.878;8.050;2022-07-03T07:35:54;3.28;;;1.52;;
35276;SDS011;21401;50.878;8.050;2022-07-03T07:38:22;3.53;;;1.50;;
35276;SDS011;21401;50.878;8.050;2022-07-03T07:40:47;3.42;;;1.55;;
35276;SDS011;21401;50.878;8.050;2022-07-03T07:43:15;5.72;;;1.30;;
35276;SDS011;21401;50.878;8.050;2022-07-03T07:45:43;1.65;;;1.20;;
35276;SDS011;21401;50.878;8.050;2022-07-03T07:48:09;4.38;;;1.40;;
35276;SDS011;21401;50.878;8.050;2022-07-03T07:50:34;3.55;;;1.30;;
35276;SDS011;21401;50.878;8.050;2022-07-03T07:53:00;2.00;;;1.60;;
35276;SDS011;21401;50.878;8.050;2022-07-03T07:55:25;3.70;;;1.33;;
35276;SDS011;21401;50.878;8.050;2022-07-03T07:57:51;4.10;;;1.55;;
35276;SDS011;21401;50.878;8.050;2022-07-03T08:00:17;2.55;;;1.30;;
35276;SDS011;21401;50.878;8.050;2022-07-03T08:02:44;2.22;;;1.25;;
35276;SDS011;21401;50.878;8.050;2022-07-03T08:05:29;2.97;;;1.30;;
35276;SDS011;21401;50.878;8.050;2022-07-03T08:08:02;6.47;;;1.40;;
35276;SDS011;21401;50.878;8.050;2022-07-03T08:10:31;7.18;;;1.20;;
35276;SDS011;21401;50.878;8.050;2022-07-03T08:13:01;4.50;;;1.20;;
35276;SDS011;21401;50.878;8.050;2022-07-03T08:15:27;2.25;;;1.20;;
35276;SDS011;21401;50.878;8.050;2022-07-03T08:17:53;4.35;;;1.20;;
35276;SDS011;21401;50.878;8.050;2022-07-03T08:20:21;3.33;;;1.20;;
35276;SDS011;21401;50.878;8.050;2022-07-03T08:22:47;2.50;;;1.02;;
35276;SDS011;21401;50.878;8.050;2022-07-03T08:25:12;5.03;;;1.27;;
35276;SDS011;21401;50.878;8.050;2022-07-03T08:27:38;3.10;;;1.30;;
35276;SDS011;21401;50.878;8.050;2022-07-03T08:30:04;1.58;;;0.98;;
35276;SDS011;21401;50.878;8.050;2022-07-03T08:32:32;2.13;;;1.25;;
35276;SDS011;21401;50.878;8.050;2022-07-03T08:34:57;3.42;;;1.10;;
35276;SDS011;21401;50.878;8.050;2022-07-03T08:37:26;3.53;;;0.90;;
35276;SDS011;21401;50.878;8.050;2022-07-03T08:39:54;3.17;;;0.90;;
35276;SDS011;21401;50.878;8.050;2022-07-03T08:42:20;2.90;;;1.10;;
35276;SDS011;21401;50.878;8.050;2022-07-03T08:44:48;5.25;;;1.50;;
35276;SDS011;21401;50.878;8.050;2022-07-03T08:47:24;3.90;;;1.25;;
35276;SDS011;21401;50.878;8.050;2022-07-03T08:49:53;1.60;;;0.82;;
35276;SDS011;21401;50.878;8.050;2022-07-03T08:52:20;3.28;;;1.00;;
35276;SDS011;21401;50.878;8.050;2022-07-03T08:54:50;4.70;;;1.00;;
35276;SDS011;21401;50.878;8.050;2022-07-03T08:57:18;2.80;;;0.82;;
35276;SDS011;21401;50.878;8.050;2022-07-03T08:59:49;2.35;;;1.02;;
35276;SDS011;21401;50.878;8.050;2022-07-03T09:02:19;1.25;;;0.80;;
35276;SDS011;21401;50.878;8.050;2022-07-03T09:04:47;3.03;;;0.80;;
35276;SDS011;21401;50.878;8.050;2022-07-03T09:07:13;1.13;;;0.60;;
35276;SDS011;21401;50.878;8.050;2022-07-03T09:09:42;1.58;;;0.80;;
35276;SDS011;21401;50.878;8.050;2022-07-03T09:12:09;2.75;;;0.70;;
35276;SDS011;21401;50.878;8.050;2022-07-03T09:14:35;3.83;;;0.70;;
35276;SDS011;21401;50.878;8.050;2022-07-03T09:17:01;2.05;;;1.00;;
35276;SDS011;21401;50.878;8.050;2022-07-03T09:25:12;3.47;;;0.70;;
35276;SDS011;21401;50.878;8.050;2022-07-03T09:27:50;3.63;;;0.80;;
35276;SDS011;21401;50.878;8.050;2022-07-03T09:30:17;2.20;;;0.80;;
35276;SDS011;21401;50.878;8.050;2022-07-03T09:32:44;1.25;;;0.57;;
35276;SDS011;21401;50.878;8.050;2022-07-03T09:37:59;2.88;;;0.82;;
35276;SDS011;21401;50.878;8.050;2022-07-03T09:40:48;1.98;;;0.60;;
35276;SDS011;21401;50.878;8.050;2022-07-03T09:43:23;2.10;;;0.60;;
35276;SDS011;21401;50.878;8.050;2022-07-03T09:48:29;2.65;;;0.73;;
35276;SDS011;21401;50.878;8.050;2022-07-03T09:51:13;2.45;;;0.63;;
35276;SDS011;21401;50.878;8.050;2022-07-03T09:56:27;1.88;;;0.60;;
35276;SDS011;21401;50.878;8.050;2022-07-03T09:59:12;2.25;;;0.90;;
35276;SDS011;21401;50.878;8.050;2022-07-03T10:01:40;4.63;;;0.82;;
35276;SDS011;21401;50.878;8.050;2022-07-03T10:04:29;3.60;;;0.60;;
35276;SDS011;21401;50.878;8.050;2022-07-03T10:06:57;3.38;;;0.75;;
35276;SDS011;21401;50.878;8.050;2022-07-03T10:09:25;2.70;;;0.75;;
35276;SDS011;21401;50.878;8.050;2022-07-03T10:11:52;2.05;;;0.88;;
35276;SDS011;21401;50.878;8.050;2022-07-03T10:14:26;2.00;;;0.60;;
35276;SDS011;21401;50.878;8.050;2022-07-03T10:16:53;2.00;;;0.70;;
35276;SDS011;21401;50.878;8.050;2022-07-03T10:19:22;4.55;;;0.75;;
35276;SDS011;21401;50.878;8.050;2022-07-03T10:21:54;2.35;;;0.95;;
35276;SDS011;21401;50.878;8.050;2022-07-03T10:24:26;1.40;;;0.80;;
35276;SDS011;21401;50.878;8.050;2022-07-03T10:26:54;2.22;;;0.95;;
35276;SDS011;21401;50.878;8.050;2022-07-03T10:29:22;4.38;;;0.93;;
35276;SDS011;21401;50.878;8.050;2022-07-03T10:31:49;2.30;;;0.52;;
35276;SDS011;21401;50.878;8.050;2022-07-03T10:34:21;2.03;;;0.60;;
35276;SDS011;21401;50.878;8.050;2022-07-03T10:36:52;4.88;;;0.68;;
35276;SDS011;21401;50.878;8.050;2022-07-03T10:39:27;2.70;;;0.60;;
35276;SDS011;21401;50.878;8.050;2022-07-03T10:42:04;2.03;;;0.60;;
35276;SDS011;21401;50.878;8.050;2022-07-03T10:44:52;5.13;;;1.00;;
35276;SDS011;21401;50.878;8.050;2022-07-03T10:47:42;4.13;;;0.82;;
35276;SDS011;21401;50.878;8.050;2022-07-03T10:50:13;4.45;;;0.70;;
35276;SDS011;21401;50.878;8.050;2022-07-03T10:52:49;4.93;;;0.55;;
35276;SDS011;21401;50.878;8.050;2022-07-03T10:55:17;3.47;;;0.90;;
35276;SDS011;21401;50.878;8.050;2022-07-03T10:58:28;1.45;;;0.60;;
35276;SDS011;21401;50.878;8.050;2022-07-03T11:00:52;1.60;;;0.52;;
35276;SDS011;21401;50.878;8.050;2022-07-03T11:06:19;0.70;;;0.40;;
35276;SDS011;21401;50.878;8.050;2022-07-03T11:09:01;1.73;;;0.60;;
35276;SDS011;21401;50.878;8.050;2022-07-03T11:12:02;1.35;;;0.40;;
35276;SDS011;21401;50.878;8.050;2022-07-03T11:14:21;3.95;;;0.60;;
35276;SDS011;21401;50.878;8.050;2022-07-03T11:16:49;3.78;;;0.70;;
35276;SDS011;21401;50.878;8.050;2022-07-03T11:19:34;1.85;;;0.80;;
35276;SDS011;21401;50.878;8.050;2022-07-03T11:22:00;4.80;;;0.50;;
35276;SDS011;21401;50.878;8.050;2022-07-03T11:27:13;2.28;;;0.50;;
35276;SDS011;21401;50.878;8.050;2022-07-03T11:29:41;3.10;;;0.43;;
35276;SDS011;21401;50.878;8.050;2022-07-03T11:38:15;2.70;;;0.43;;
35276;SDS011;21401;50.878;8.050;2022-07-03T11:40:52;1.05;;;0.55;;
35276;SDS011;21401;50.878;8.050;2022-07-03T11:43:19;4.05;;;0.60;;
35276;SDS011;21401;50.878;8.050;2022-07-03T11:45:46;1.67;;;0.50;;
35276;SDS011;21401;50.878;8.050;2022-07-03T11:48:14;3.33;;;0.90;;
35276;SDS011;21401;50.878;8.050;2022-07-03T11:50:40;2.13;;;0.65;;
35276;SDS011;21401;50.878;8.050;2022-07-03T11:58:13;2.35;;;0.60;;
35276;SDS011;21401;50.878;8.050;2022-07-03T12:00:38;0.90;;;0.40;;
35276;SDS011;21401;50.878;8.050;2022-07-03T12:03:04;4.68;;;0.47;;
35276;SDS011;21401;50.878;8.050;2022-07-03T12:05:33;3.55;;;0.55;;
35276;SDS011;21401;50.878;8.050;2022-07-03T12:08:05;2.55;;;0.50;;
35276;SDS011;21401;50.878;8.050;2022-07-03T12:10:38;1.33;;;0.40;;
35276;SDS011;21401;50.878;8.050;2022-07-03T12:13:06;3.50;;;0.60;;
35276;SDS011;21401;50.878;8.050;2022-07-03T12:15:46;1.23;;;0.45;;
35276;SDS011;21401;50.878;8.050;2022-07-03T12:18:15;1.17;;;0.50;;
35276;SDS011;21401;50.878;8.050;2022-07-03T12:20:43;5.30;;;0.70;;
35276;SDS011;21401;50.878;8.050;2022-07-03T12:23:11;3.38;;;0.75;;
35276;SDS011;21401;50.878;8.050;2022-07-03T12:25:39;1.80;;;0.50;;
35276;SDS011;21401;50.878;8.050;2022-07-03T12:28:08;2.47;;;0.82;;
35276;SDS011;21401;50.878;8.050;2022-07-03T12:30:35;4.40;;;0.80;;
35276;SDS011;21401;50.878;8.050;2022-07-03T12:33:02;0.73;;;0.40;;
35276;SDS011;21401;50.878;8.050;2022-07-03T12:35:29;2.00;;;0.40;;
35276;SDS011;21401;50.878;8.050;2022-07-03T12:37:55;1.48;;;0.60;;
35276;SDS011;21401;50.878;8.050;2022-07-03T12:40:22;0.73;;;0.52;;
35276;SDS011;21401;50.878;8.050;2022-07-03T12:42:48;0.60;;;0.40;;
35276;SDS011;21401;50.878;8.050;2022-07-03T12:48:02;2.67;;;1.02;;
35276;SDS011;21401;50.878;8.050;2022-07-03T12:53:29;2.95;;;0.60;;
35276;SDS011;21401;50.878;8.050;2022-07-03T12:56:00;1.00;;;0.57;;
35276;SDS011;21401;50.878;8.050;2022-07-03T12:58:36;0.88;;;0.50;;
35276;SDS011;21401;50.878;8.050;2022-07-03T13:01:29;9.32;;;1.23;;
35276;SDS011;21401;50.878;8.050;2022-07-03T13:03:59;4.43;;;0.60;;
35276;SDS011;21401;50.878;8.050;2022-07-03T13:06:26;6.47;;;0.70;;
35276;SDS011;21401;50.878;8.050;2022-07-03T13:08:53;2.33;;;1.25;;
35276;SDS011;21401;50.878;8.050;2022-07-03T13:11:35;4.25;;;0.85;;
35276;SDS011;21401;50.878;8.050;2022-07-03T13:14:06;3.75;;;0.80;;
35276;SDS011;21401;50.878;8.050;2022-07-03T13:16:39;1.13;;;0.60;;
35276;SDS011;21401;50.878;8.050;2022-07-03T13:19:06;0.77;;;0.40;;
35276;SDS011;21401;50.878;8.050;2022-07-03T13:21:34;2.60;;;0.57;;
35276;SDS011;21401;50.878;8.050;2022-07-03T13:24:00;1.58;;;0.60;;
35276;SDS011;21401;50.878;8.050;2022-07-03T13:26:27;5.35;;;0.60;;
35276;SDS011;21401;50.878;8.050;2022-07-03T13:28:53;3.63;;;0.85;;
35276;SDS011;21401;50.878;8.050;2022-07-03T13:31:19;3.83;;;0.60;;
35276;SDS011;21401;50.878;8.050;2022-07-03T13:33:44;4.30;;;0.52;;
35276;SDS011;21401;50.878;8.050;2022-07-03T13:36:10;1.20;;;0.63;;
35276;SDS011;21401;50.878;8.050;2022-07-03T13:38:38;1.77;;;0.65;;
35276;SDS011;21401;50.878;8.050;2022-07-03T13:41:06;1.83;;;0.45;;
35276;SDS011;21401;50.878;8.050;2022-07-03T13:43:32;2.45;;;0.70;;
35276;SDS011;21401;50.878;8.050;2022-07-03T13:45:57;2.55;;;0.75;;
35276;SDS011;21401;50.878;8.050;2022-07-03T13:48:24;2.10;;;0.85;;
35276;SDS011;21401;50.878;8.050;2022-07-03T13:50:49;0.85;;;0.50;;
35276;SDS011;21401;50.878;8.050;2022-07-03T13:53:15;1.73;;;0.77;;
35276;SDS011;21401;50.878;8.050;2022-07-03T13:55:43;2.08;;;0.70;;
35276;SDS011;21401;50.878;8.050;2022-07-03T13:58:09;2.22;;;1.27;;
35276;SDS011;21401;50.878;8.050;2022-07-03T14:00:37;1.60;;;0.73;;
35276;SDS011;21401;50.878;8.050;2022-07-03T14:03:05;3.92;;;0.85;;
35276;SDS011;21401;50.878;8.050;2022-07-03T14:05:31;1.75;;;0.70;;
35276;SDS011;21401;50.878;8.050;2022-07-03T14:07:56;1.58;;;0.70;;
35276;SDS011;21401;50.878;8.050;2022-07-03T14:10:22;2.63;;;0.60;;
35276;SDS011;21401;50.878;8.050;2022-07-03T14:12:50;1.52;;;0.80;;
35276;SDS011;21401;50.878;8.050;2022-07-03T14:15:16;2.35;;;0.70;;
35276;SDS011;21401;50.878;8.050;2022-07-03T14:17:41;1.08;;;0.52;;
35276;SDS011;21401;50.878;8.050;2022-07-03T14:20:10;3.95;;;0.65;;
35276;SDS011;21401;50.878;8.050;2022-07-03T14:22:36;3.78;;;0.80;;
35276;SDS011;21401;50.878;8.050;2022-07-03T14:25:02;1.15;;;0.60;;
35276;SDS011;21401;50.878;8.050;2022-07-03T14:27:28;2.55;;;0.95;;
35276;SDS011;21401;50.878;8.050;2022-07-03T14:30:12;2.13;;;0.80;;
35276;SDS011;21401;50.878;8.050;2022-07-03T14:32:56;2.17;;;0.80;;
35276;SDS011;21401;50.878;8.050;2022-07-03T14:35:22;2.53;;;0.57;;
35276;SDS011;21401;50.878;8.050;2022-07-03T14:37:48;2.00;;;0.60;;
35276;SDS011;21401;50.878;8.050;2022-07-03T14:40:14;3.30;;;0.88;;
35276;SDS011;21401;50.878;8.050;2022-07-03T14:42:39;1.40;;;0.60;;
35276;SDS011;21401;50.878;8.050;2022-07-03T14:45:06;3.30;;;0.60;;
35276;SDS011;21401;50.878;8.050;2022-07-03T14:47:35;1.83;;;0.63;;
35276;SDS011;21401;50.878;8.050;2022-07-03T14:50:01;2.25;;;0.70;;
35276;SDS011;21401;50.878;8.050;2022-07-03T14:52:26;2.92;;;0.65;;
35276;SDS011;21401;50.878;8.050;2022-07-03T14:54:56;1.13;;;0.77;;
35276;SDS011;21401;50.878;8.050;2022-07-03T15:05:18;2.50;;;0.75;;
35276;SDS011;21401;50.878;8.050;2022-07-03T15:08:04;2.08;;;0.75;;
35276;SDS011;21401;50.878;8.050;2022-07-03T15:10:32;2.65;;;0.88;;
35276;SDS011;21401;50.878;8.050;2022-07-03T15:13:03;2.05;;;0.85;;
35276;SDS011;21401;50.878;8.050;2022-07-03T15:15:30;1.30;;;0.60;;
35276;SDS011;21401;50.878;8.050;2022-07-03T15:18:01;5.35;;;1.00;;
35276;SDS011;21401;50.878;8.050;2022-07-03T15:20:32;3.15;;;0.80;;
35276;SDS011;21401;50.878;8.050;2022-07-03T15:23:00;3.38;;;0.70;;
35276;SDS011;21401;50.878;8.050;2022-07-03T15:25:28;4.78;;;0.77;;
35276;SDS011;21401;50.878;8.050;2022-07-03T15:27:57;2.47;;;1.02;;
35276;SDS011;21401;50.878;8.050;2022-07-03T15:30:24;2.63;;;0.80;;
35276;SDS011;21401;50.878;8.050;2022-07-03T15:32:57;2.28;;;0.90;;
35276;SDS011;21401;50.878;8.050;2022-07-03T15:35:23;6.53;;;0.75;;
35276;SDS011;21401;50.878;8.050;2022-07-03T15:38:00;1.73;;;0.68;;
35276;SDS011;21401;50.878;8.050;2022-07-03T15:54:24;4.65;;;0.82;;
35276;SDS011;21401;50.878;8.050;2022-07-03T15:56:56;2.55;;;0.90;;
35276;SDS011;21401;50.878;8.050;2022-07-03T15:59:29;4.00;;;1.00;;
35276;SDS011;21401;50.878;8.050;2022-07-03T16:01:59;3.72;;;0.82;;
35276;SDS011;21401;50.878;8.050;2022-07-03T16:07:08;2.70;;;1.08;;
35276;SDS011;21401;50.878;8.050;2022-07-03T16:09:35;3.40;;;1.25;;
35276;SDS011;21401;50.878;8.050;2022-07-03T16:12:01;5.65;;;1.13;;
35276;SDS011;21401;50.878;8.050;2022-07-03T16:14:29;4.95;;;0.80;;
35276;SDS011;21401;50.878;8.050;2022-07-03T16:16:59;3.63;;;1.15;;
35276;SDS011;21401;50.878;8.050;2022-07-03T16:19:28;3.28;;;0.93;;
35276;SDS011;21401;50.878;8.050;2022-07-03T16:21:56;4.82;;;0.90;;
35276;SDS011;21401;50.878;8.050;2022-07-03T16:24:24;1.70;;;0.85;;
35276;SDS011;21401;50.878;8.050;2022-07-03T16:26:53;3.95;;;1.20;;
35276;SDS011;21401;50.878;8.050;2022-07-03T16:29:19;2.60;;;1.10;;
35276;SDS011;21401;50.878;8.050;2022-07-03T16:31:46;1.40;;;0.80;;
35276;SDS011;21401;50.878;8.050;2022-07-03T16:34:24;4.75;;;1.35;;